^^
Datos históricos de la estación: Murcia-Puente Tocinos
Diario Informe para Junio 3, 2019 Unidades:  Ingés    Métrico   Ambas
Diario Semanal Mensual Anual
  Máxima: Mínima: Promedio:
Temperatura: 85.6 °F 73 °F 79 °F
Punto de rocio: 70.5 °F 66.6 °F 68.5 °F
Humedad: 87% 53.1% 72%
Velocidad viento: 10.2mph 0mph 3.7mph
Racha viento: 21mph - -
Viento- - ESE
Presión: 30.1 in 30 in -
Precipitación: 0 in    
 
 
Tabla de datos para Junio 3, 2019
Hora Temperatura Punto de rocio Presión Viento Velocidad viento Racha viento Humedad Intensidad lluvia(por hora) Nubes
00:04 75 °F 68.4 °F 30.1 in ENE 2.9 mph 5 mph 80% 0 in
00:09 75.2 °F 68.5 °F 30.1 in Este 2.9 mph 5 mph 80% 0 in
00:14 75.4 °F 68.7 °F 30.1 in Este 2.9 mph 5 mph 80% 0 in
00:19 75.4 °F 68.9 °F 30.1 in Este 2.4 mph 4 mph 80% 0 in
00:24 75.6 °F 68.9 °F 30.1 in Este 1.4 mph 2 mph 79.8% 0 in
00:29 75.6 °F 69.1 °F 30.1 in Este 1 mph   80% 0 in
00:34 75.6 °F 69.1 °F 30.1 in Calm     80% 0 in
00:39 75.6 °F 69.1 °F 30.1 in Calm     80% 0 in
00:44 75.7 °F 69.1 °F 30.1 in Calm   2.9 mph 80% 0 in
00:49 75.7 °F 68.9 °F 30.1 in NO 0.4 mph 4.6 mph 79.3% 0 in
00:54 75.6 °F 68.5 °F 30.1 in NO 1.4 mph 5 mph 79% 0 in
00:59 75.4 °F 68.5 °F 30.1 in NO 1.4 mph 3.5 mph 79.3% 0 in
01:04 75.4 °F 68.7 °F 30.1 in NO 1.4 mph 3 mph 80% 0 in
01:09 75.4 °F 68.7 °F 30.1 in NO 0.9 mph 2 mph 80% 0 in
01:14 75.4 °F 68.7 °F 30.1 in Calm     80% 0 in
01:19 75.4 °F 68.7 °F 30.1 in Calm   2.4 mph 80% 0 in
01:24 75.4 °F 68.7 °F 30.1 in Calm   4.6 mph 80% 0 in
01:29 75.4 °F 68.7 °F 30.1 in NO 0.6 mph 5 mph 80% 0 in
01:34 75.4 °F 68.9 °F 30.1 in NO 2 mph 5 mph 80.3% 0 in
01:39 75.2 °F 69.1 °F 30.1 in ONO 2.1 mph 5 mph 81% 0 in
01:44 75.2 °F 69.1 °F 30.1 in ONO 2.4 mph 5 mph 81% 0 in
01:49 75.4 °F 69.3 °F 30.1 in NO 2.2 mph 5 mph 81.4% 0 in
01:54 75.4 °F 69.4 °F 30.1 in NO 1.8 mph 4.7 mph 82% 0 in
01:59 75.4 °F 69.4 °F 30.1 in NO 1.9 mph 5 mph 82% 0 in
02:04 75.4 °F 69.4 °F 30.1 in NO 2 mph 5 mph 82% 0 in
02:09 75.4 °F 69.4 °F 30.1 in ONO 2 mph 3.6 mph 82% 0 in
02:14 75.2 °F 69.3 °F 30.1 in NO 2 mph 4 mph 82% 0 in
02:19 75.2 °F 69.3 °F 30.1 in NO 1.8 mph 4 mph 82% 0 in
02:24 75.2 °F 69.3 °F 30.1 in NO 1.4 mph   82% 0 in
02:29 75.4 °F 69.4 °F 30.1 in NO 1.4 mph 4.6 mph 82.1% 0 in
02:34 75.4 °F 69.8 °F 30.1 in NO 1.4 mph 5 mph 82.9% 0 in
02:39 75.4 °F 69.6 °F 30.1 in NO 1.4 mph 3.5 mph 82.4% 0 in
02:44 75.4 °F 69.8 °F 30.1 in NO 1.4 mph 3 mph 82.9% 0 in
02:49 75.4 °F 70 °F 30.1 in NO 1.6 mph 3.6 mph 83% 0 in
02:54 75.4 °F 69.6 °F 30.1 in NO 1.8 mph 4.6 mph 82.5% 0 in
02:59 75.4 °F 69.4 °F 30.1 in NO 1.9 mph 5 mph 82% 0 in
03:04 75.4 °F 69.4 °F 30.1 in NO 2 mph 4 mph 82% 0 in
03:09 75.4 °F 69.4 °F 30.1 in NO 1.4 mph 2 mph 82% 0 in
03:14 75.4 °F 69.4 °F 30.1 in Calm   1 mph 82% 0 in
03:19 75.6 °F 69.6 °F 30.1 in Calm   1.4 mph 82% 0 in
03:24 75.6 °F 69.6 °F 30.1 in Calm   3.5 mph 82% 0 in
03:29 75.6 °F 69.8 °F 30.1 in Calm   3 mph 82.2% 0 in
03:34 75.4 °F 69.4 °F 30.1 in Calm   2 mph 82% 0 in
03:39 75.4 °F 69.4 °F 30.1 in Calm     82% 0 in
03:44 75.2 °F 69.4 °F 30.1 in Calm   3.6 mph 82% 0 in
03:49 75.2 °F 69.3 °F 30.1 in SSE 0.4 mph 4 mph 82% 0 in
03:54 75 °F 69.1 °F 30.1 in SSE 1.4 mph 4 mph 82% 0 in
03:59 75 °F 69.1 °F 30.1 in SSE 1.4 mph 3 mph 82% 0 in
04:04 75 °F 69.1 °F 30.1 in SSE 1.4 mph   82% 0 in
04:09 75 °F 69.1 °F 30.1 in SSE 1 mph   82% 0 in
04:14 75 °F 69.1 °F 30.1 in Calm     82% 0 in
04:19 75 °F 69.1 °F 30.1 in Calm     82% 0 in
04:24 75 °F 69.1 °F 30.1 in Calm   4.6 mph 82% 0 in
04:29 74.8 °F 69.1 °F 30.1 in SSE 0.6 mph 5 mph 82% 0 in
04:34 74.8 °F 69.1 °F 30.1 in SSE 2 mph 4 mph 82% 0 in
04:39 74.8 °F 69.1 °F 30.1 in SSE 2 mph 4 mph 82% 0 in
04:44 74.8 °F 69.1 °F 30.1 in SSE 2 mph 4.6 mph 82% 0 in
04:49 74.7 °F 68.9 °F 30.1 in SSE 2.1 mph 5 mph 82% 0 in
04:54 74.7 °F 69.1 °F 30.1 in SSE 2.4 mph 5 mph 82.7% 0 in
04:59 74.7 °F 69.3 °F 30.1 in SSE 2.4 mph 5 mph 83% 0 in
05:04 74.7 °F 69.3 °F 30.1 in SSE 2.4 mph 4 mph 83% 0 in
05:09 74.7 °F 69.3 °F 30.1 in SSE 1.6 mph 2 mph 83% 0 in
05:14 74.7 °F 69.3 °F 30.1 in Calm     83% 0 in
05:19 74.7 °F 69.1 °F 30.1 in Calm     83% 0 in
05:24 74.5 °F 69.3 °F 30.1 in Calm     83.6% 0 in
05:29 74.3 °F 69.1 °F 30.1 in Calm     84% 0 in
05:34 74.1 °F 69.1 °F 30.1 in Calm     84% 0 in
05:39 74.1 °F 69.1 °F 30.1 in Calm     84.3% 0 in
05:44 74.1 °F 69.3 °F 30.1 in Calm     85% 0 in
05:49 74.1 °F 69.3 °F 30.1 in Calm     85% 0 in
05:54 73.9 °F 69.3 °F 30.1 in Calm     85% 0 in
05:59 73.9 °F 69.4 °F 30.1 in Calm     85.8% 0 in
06:04 73.9 °F 69.4 °F 30.1 in Calm     86% 0 in
06:09 73.9 °F 69.4 °F 30.1 in Calm     86% 0 in
06:14 73.8 °F 69.1 °F 30.1 in Calm     85.5% 0 in
06:19 73.8 °F 69.3 °F 30.1 in Calm     86% 0 in
06:24 73.8 °F 69.3 °F 30.1 in Calm   1.4 mph 86% 0 in
06:29 73.6 °F 69.1 °F 30.1 in Calm   1.2 mph 86% 0 in
06:34 73.6 °F 69.1 °F 30.1 in Calm   5.2 mph 85.7% 0 in
06:39 73.6 °F 68.7 °F 30.1 in SSE 0.7 mph 5 mph 85% 0 in
06:44 73.6 °F 68.7 °F 30.1 in SSE 2.4 mph 5.2 mph 85% 0 in
06:49 73.6 °F 68.7 °F 30.1 in Sur 2.6 mph 5 mph 85% 0 in
06:54 73.6 °F 68.7 °F 30.1 in Sur 3.1 mph 5 mph 85% 0 in
06:59 73.6 °F 68.7 °F 30.1 in SSE 2.9 mph 4 mph 85% 0 in
07:04 73.6 °F 68.7 °F 30.1 in SSE 2.4 mph 4 mph 85% 0 in
07:09 73.6 °F 68.7 °F 30.1 in Sur 2.1 mph 3.6 mph 85% 0 in
07:14 73.6 °F 68.7 °F 30.1 in SO 1.4 mph 4 mph 85% 0 in
07:19 73.6 °F 69.1 °F 30.1 in SO 1.4 mph 3 mph 85.9% 0 in
07:24 73.4 °F 69.1 °F 30.1 in SO 1.4 mph   86% 0 in
07:29 73.2 °F 68.9 °F 30.1 in SO 0.9 mph   86% 0 in
07:34 73.2 °F 68.7 °F 30.1 in Calm     86% 0 in
07:39 73.2 °F 68.7 °F 30.1 in Calm     86% 0 in
07:44 73.2 °F 68.7 °F 30.1 in Calm   5.2 mph 86% 0 in
07:49 73 °F 68.5 °F 30.1 in Calm   5 mph 86% 0 in
07:54 73 °F 68.7 °F 30.1 in Calm   5 mph 86.5% 0 in
07:59 73 °F 68.9 °F 30.1 in Calm   1.4 mph 87% 0 in
08:04 73 °F 68.9 °F 30.1 in Calm   2.4 mph 87% 0 in
08:09 73 °F 68.9 °F 30.1 in OSO 0.4 mph 2.9 mph 87% 0 in
08:14 73 °F 68.9 °F 30.1 in OSO 1.4 mph 3 mph 86.9% 0 in
08:19 73.2 °F 69.1 °F 30.1 in OSO 1 mph 2 mph 87% 0 in
08:24 73.4 °F 69.3 °F 30.1 in Calm     87% 0 in
08:29 73.8 °F 69.6 °F 30.1 in Calm     86.9% 0 in
08:34 73.9 °F 69.3 °F 30.1 in Calm   4.6 mph 85.5% 0 in
08:39 74.1 °F 69.3 °F 30.1 in Sur 0.6 mph 5 mph 85% 0 in
08:44 74.1 °F 69.3 °F 30.1 in Sur 1.8 mph 4.6 mph 84.5% 0 in
08:49 74.5 °F 69.3 °F 30.1 in SSO 1.9 mph 5 mph 84% 0 in
08:54 74.7 °F 69.4 °F 30.1 in OSO 2 mph 5 mph 84% 0 in
08:59 74.8 °F 69.3 °F 30.1 in ONO 1.9 mph 4 mph 83.1% 0 in
09:04 74.8 °F 69.4 °F 30.1 in ONO 1.8 mph 4 mph 83% 0 in
09:09 75 °F 69.4 °F 30.1 in OSO 1.8 mph 5 mph 82.8% 0 in
09:14 75 °F 69.4 °F 30.1 in Oeste 1.8 mph 5 mph 82.7% 0 in
09:19 75.2 °F 69.8 °F 30.1 in ONO 2 mph 5 mph 83% 0 in
09:24 75.6 °F 69.6 °F 30.1 in Oeste 2.4 mph 5 mph 82.2% 0 in
09:29 75.7 °F 69.8 °F 30.1 in OSO 2.2 mph 5 mph 82% 0 in
09:34 76.1 °F 69.8 °F 30.1 in Sur 1.8 mph 5.2 mph 80.8% 0 in
09:39 76.5 °F 69.8 °F 30.1 in SSE 2.2 mph 5.2 mph 80% 0 in
09:44 76.6 °F 69.8 °F 30.1 in SSE 2.9 mph 5 mph 79.4% 0 in
09:49 77 °F 69.8 °F 30.1 in ESE 2.6 mph 5.9 mph 78.6% 0 in
09:54 77.4 °F 70 °F 30.1 in Este 2 mph 6 mph 78% 0 in
09:59 77.9 °F 70.2 °F 30.1 in Este 1.9 mph 4.3 mph 77.3% 0 in
10:04 78.4 °F 70.2 °F 30.1 in North 1.8 mph 5 mph 76.2% 0 in
10:09 78.4 °F 70 °F 30.1 in NO 1.7 mph 5 mph 75% 0 in
10:14 78.4 °F 70 °F 30.1 in ONO 1.4 mph 5 mph 75% 0 in
10:19 78.4 °F 70 °F 30.1 in North 1.7 mph 5.2 mph 75.7% 0 in
10:24 78.4 °F 70 °F 30.1 in ENE 2.4 mph 5.2 mph 75.2% 0 in
10:29 78.6 °F 70 °F 30.1 in SE 2.6 mph 5 mph 75% 0 in
10:34 78.8 °F 70 °F 30.1 in SSE 3.1 mph 5.8 mph 74.7% 0 in
10:39 79 °F 70.2 °F 30.1 in SSE 3.1 mph 6 mph 74.5% 0 in
10:44 79 °F 70 °F 30.1 in SO 3.1 mph 5 mph 74.2% 0 in
10:49 79.3 °F 70.3 °F 30.1 in Sur 2.7 mph 4 mph 74% 0 in
10:54 79.9 °F 70.5 °F 30.1 in Este 2 mph 6.9 mph 73% 0 in
10:59 80.2 °F 69.8 °F 30.1 in NE 2.4 mph 7 mph 70.3% 0 in
11:04 79.7 °F 68.7 °F 30.1 in NE 3.1 mph 9.2 mph 69.3% 0 in
11:09 79 °F 68.2 °F 30.1 in NE 3.5 mph 9 mph 69.3% 0 in
11:14 78.8 °F 67.5 °F 30.1 in NE 4.3 mph 7 mph 68.6% 0 in
11:19 78.6 °F 67.6 °F 30.1 in NNO 3.9 mph 6.4 mph 69% 0 in
11:24 78.8 °F 67.8 °F 30.1 in NNE 2.9 mph 7.4 mph 69.1% 0 in
11:29 79.2 °F 68.2 °F 30.1 in NE 3.1 mph 7 mph 69.1% 0 in
11:34 79.9 °F 67.8 °F 30.1 in ENE 3.6 mph 8.1 mph 67.1% 0 in
11:39 80.1 °F 68 °F 30.1 in ENE 4 mph 9.2 mph 66.8% 0 in
11:44 80.4 °F 68.4 °F 30.1 in Este 4.7 mph 9 mph 66.8% 0 in
11:49 80.4 °F 68.5 °F 30.1 in NNE 4.5 mph 7 mph 67% 0 in
11:54 80.8 °F 67.8 °F 30.1 in ENE 4 mph 7 mph 64.9% 0 in
11:59 81.1 °F 66.7 °F 30.1 in ESE 4 mph 9.2 mph 61.7% 0 in
12:04 81.5 °F 66.6 °F 30.1 in NE 4 mph 10.2 mph 60.4% 0 in
12:09 81.9 °F 67.1 °F 30.1 in Este 4.2 mph 10 mph 60.9% 0 in
12:14 82.2 °F 66.9 °F 30.1 in Este 4.7 mph 10.4 mph 60.1% 0 in
12:19 82 °F 67.5 °F 30.1 in ESE 4.7 mph 10 mph 61.2% 0 in
12:24 82 °F 67.3 °F 30.1 in NE 4.7 mph 12.3 mph 61% 0 in
12:29 81.9 °F 67.3 °F 30.1 in NE 4.9 mph 12 mph 61.4% 0 in
12:34 82 °F 67.3 °F 30.1 in NNE 5.4 mph 10 mph 61.1% 0 in
12:39 81.9 °F 67.8 °F 30.1 in NNE 5.3 mph 11.5 mph 62.6% 0 in
12:44 81.9 °F 67.8 °F 30.1 in NNE 5.2 mph 12 mph 62.6% 0 in
12:49 82 °F 67.8 °F 30.1 in NE 4.9 mph 9.2 mph 62.3% 0 in
12:54 82.2 °F 67.5 °F 30.1 in ENE 4.3 mph 9.7 mph 61% 0 in
12:59 82.8 °F 67.5 °F 30.1 in Este 4.5 mph 11.5 mph 60.1% 0 in
13:04 83.1 °F 67.5 °F 30.1 in NNE 4.7 mph 12 mph 59.4% 0 in
13:09 82.9 °F 67.5 °F 30.1 in NE 4.9 mph 10.4 mph 59.5% 0 in
13:14 83.3 °F 67.6 °F 30.1 in NE 5.4 mph 13 mph 59.4% 0 in
13:19 83.7 °F 67.3 °F 30.1 in ENE 5.4 mph 13 mph 57.9% 0 in
13:24 83.7 °F 66.7 °F 30.1 in ENE 5.4 mph 12.5 mph 57% 0 in
13:29 83.8 °F 67.3 °F 30.1 in NE 5.7 mph 13.8 mph 57.8% 0 in
13:34 83.8 °F 67.5 °F 30.1 in NE 6.4 mph 14 mph 58.1% 0 in
13:39 83.8 °F 68 °F 30.1 in NE 6.6 mph 13.8 mph 59% 0 in
13:44 84 °F 68.4 °F 30.1 in NE 6.9 mph 14 mph 59.1% 0 in
13:49 84.4 °F 67.5 °F 30.1 in Este 6.3 mph 9 mph 56.9% 0 in
13:54 84.6 °F 67.5 °F 30.1 in ENE 5.2 mph 13 mph 56.9% 0 in
13:59 84.4 °F 67.1 °F 30.1 in NE 5.5 mph 13.8 mph 56.3% 0 in
14:04 84.6 °F 67.1 °F 30.1 in NE 6.2 mph 15.2 mph 55.8% 0 in
14:09 84.6 °F 67.6 °F 30.1 in NE 6.3 mph 15.2 mph 57.1% 0 in
14:14 84.2 °F 67.3 °F 30.1 in NNE 6.4 mph 15 mph 57% 0 in
14:19 84.6 °F 67.6 °F 30.1 in NE 6.3 mph 12 mph 56.9% 0 in
14:24 84.7 °F 67.1 °F 30.1 in NE 6.2 mph 13.8 mph 55.6% 0 in
14:29 84.6 °F 67.5 °F 30.1 in ENE 6.6 mph 14 mph 56.5% 0 in
14:34 85.1 °F 67.6 °F 30.1 in NE 7.4 mph 11.5 mph 56.2% 0 in
14:39 85.5 °F 67.5 °F 30.1 in ENE 7 mph 12 mph 55.2% 0 in
14:44 85.5 °F 67.5 °F 30.1 in Este 6.2 mph 12 mph 55% 0 in
14:49 85.3 °F 67.3 °F 30.1 in NE 6.2 mph 15 mph 55% 0 in
14:54 85.5 °F 67.1 °F 30.1 in NE 6.2 mph 15 mph 54.4% 0 in
14:59 85.3 °F 66.9 °F 30.1 in NE 6.5 mph 16.1 mph 54.4% 0 in
15:04 85.3 °F 66.9 °F 30.1 in NE 6.9 mph 16 mph 54.4% 0 in
15:09 85.3 °F 67.1 °F 30.1 in NE 7.1 mph 14 mph 54.8% 0 in
15:14 85.3 °F 66.9 °F 30.1 in NE 7.4 mph 15 mph 54.4% 0 in
15:19 85.5 °F 67.1 °F 30.1 in ENE 7.8 mph 15 mph 54.4% 0 in
15:24 85.6 °F 66.9 °F 30.1 in NE 8.5 mph 19.6 mph 53.8% 0 in
15:29 85.5 °F 66.7 °F 30.1 in NE 8.9 mph 20 mph 53.7% 0 in
15:34 85.3 °F 66.9 °F 30.1 in NE 9.7 mph 16.1 mph 54.2% 0 in
15:39 85.5 °F 67.1 °F 30.1 in NE 9.1 mph 16 mph 54.2% 0 in
15:44 85.6 °F 66.7 °F 30.1 in ENE 7.6 mph 15 mph 53.4% 0 in
15:49 85.6 °F 66.6 °F 30.1 in Este 7.1 mph 13 mph 53.1% 0 in
15:54 85.6 °F 66.9 °F 30 in ENE 6.2 mph 17.3 mph 53.5% 0 in
15:59 85.6 °F 67.1 °F 30 in NE 6.9 mph 17 mph 54% 0 in
16:04 85.6 °F 67.1 °F 30 in Este 8.1 mph 15.6 mph 54.1% 0 in
16:09 85.5 °F 67.1 °F 30 in ENE 8.1 mph 16.1 mph 54.2% 0 in
16:14 85.5 °F 67.1 °F 30 in ENE 8.1 mph 17.5 mph 54.6% 0 in
16:19 85.3 °F 67.3 °F 30 in NE 7.7 mph 17.3 mph 55% 0 in
16:24 85.5 °F 67.5 °F 30 in NE 6.9 mph 15 mph 55.1% 0 in
16:29 85.3 °F 67.8 °F 30 in ENE 7.3 mph 15.2 mph 56% 0 in
16:34 85.6 °F 67.6 °F 30 in NE 8.1 mph 15 mph 55.2% 0 in
16:39 85.5 °F 67.3 °F 30 in ENE 8.2 mph 20.7 mph 54.8% 0 in
16:44 85.5 °F 67.1 °F 30 in ENE 8.5 mph 21 mph 54.5% 0 in
16:49 85.5 °F 66.9 °F 30 in NE 8.7 mph 19 mph 54.1% 0 in
16:54 85.3 °F 66.7 °F 30 in NE 9.2 mph 15 mph 54.2% 0 in
16:59 85.3 °F 66.7 °F 30 in NE 9.4 mph 19 mph 54% 0 in
17:04 85.3 °F 66.7 °F 30 in ENE 10 mph 19 mph 54.2% 0 in
17:09 85.3 °F 67.3 °F 30 in NE 9.4 mph 16.1 mph 54.7% 0 in
17:14 85.3 °F 67.1 °F 30 in NE 8.1 mph 19.7 mph 54.5% 0 in
17:19 85.1 °F 66.9 °F 30 in NE 8.8 mph 20 mph 54.9% 0 in
17:24 85.1 °F 67.1 °F 30 in NE 10.2 mph 17.3 mph 55% 0 in
17:29 84.9 °F 66.9 °F 30 in ENE 10 mph 17 mph 55% 0 in
17:34 85.1 °F 67.1 °F 30 in NE 9.7 mph 15 mph 55% 0 in
17:39 85.1 °F 67.1 °F 30 in NE 9.4 mph 15 mph 55% 0 in
17:44 85.5 °F 67.3 °F 30 in ENE 8.7 mph 15 mph 54.7% 0 in
17:49 85.3 °F 67.3 °F 30 in Este 8.3 mph 13 mph 55% 0 in
17:54 85.5 °F 67.5 °F 30 in ENE 7.4 mph 15.6 mph 55% 0 in
17:59 85.5 °F 67.5 °F 30 in Este 6.8 mph 16.1 mph 55.2% 0 in
18:04 85.5 °F 67.5 °F 30 in Este 5.9 mph 16 mph 55.2% 0 in
18:09 85.3 °F 67.8 °F 30 in ENE 6.2 mph 14 mph 55.8% 0 in
18:14 85.3 °F 67.6 °F 30 in Este 6.9 mph 11.8 mph 55.6% 0 in
18:19 85.1 °F 67.6 °F 30 in Este 6.7 mph 12 mph 56% 0 in
18:24 85.1 °F 67.6 °F 30 in ENE 6.4 mph 12 mph 56.1% 0 in
18:29 85.1 °F 67.3 °F 30 in Este 6.1 mph 12.3 mph 55.4% 0 in
18:34 84.7 °F 66.7 °F 30 in Este 5.4 mph 13 mph 55% 0 in
18:39 84.6 °F 66.9 °F 30 in ESE 6 mph 14 mph 55.7% 0 in
18:44 84.2 °F 66.7 °F 30 in ESE 7.4 mph 16.1 mph 56% 0 in
18:49 84 °F 66.6 °F 30 in ESE 8.1 mph 16.1 mph 56% 0 in
18:54 84.2 °F 66.7 °F 30 in Este 9.7 mph 13 mph 56% 0 in
18:59 84.2 °F 66.7 °F 30 in Este 8.7 mph 13.5 mph 56% 0 in
19:04 84 °F 66.9 °F 30 in ESE 6.9 mph 13 mph 56.8% 0 in
19:09 83.8 °F 67.1 °F 30 in ESE 7.1 mph 12.7 mph 57% 0 in
19:14 83.7 °F 66.7 °F 30 in ESE 7.4 mph 13 mph 57.1% 0 in
19:19 83.5 °F 67.3 °F 30 in Este 7.2 mph 13 mph 58.4% 0 in
19:24 83.5 °F 67.6 °F 30 in ENE 6.9 mph 10 mph 59.2% 0 in
19:29 83.1 °F 67.6 °F 30 in Este 6.6 mph 10.7 mph 59.7% 0 in
19:34 82.9 °F 67.6 °F 30 in Este 5.9 mph 11.5 mph 60% 0 in
19:39 82.8 °F 67.6 °F 30 in ENE 5.9 mph 12 mph 60.3% 0 in
19:44 82.8 °F 67.8 °F 30 in NE 5.9 mph 10 mph 61% 0 in
19:49 82.6 °F 68.2 °F 30 in NE 5.7 mph 10.4 mph 61.9% 0 in
19:54 82.4 °F 68.2 °F 30 in Este 5.2 mph 10 mph 62% 0 in
19:59 82.2 °F 68 °F 30 in Este 5 mph 9.2 mph 62% 0 in
20:04 82 °F 67.8 °F 30.1 in Este 4.7 mph 9.2 mph 62% 0 in
20:09 81.9 °F 67.6 °F 30.1 in ENE 4.9 mph 13 mph 62.3% 0 in
20:14 81.5 °F 67.8 °F 30.1 in ENE 5.4 mph 13 mph 63% 0 in
20:19 81.3 °F 67.8 °F 30.1 in Este 5.2 mph 9.7 mph 63.8% 0 in
20:24 81.1 °F 67.8 °F 30.1 in ENE 4.7 mph 10 mph 64.1% 0 in
20:29 81.1 °F 68.2 °F 30.1 in Este 4.3 mph 6.2 mph 64.7% 0 in
20:34 81 °F 68.2 °F 30.1 in Este 3.6 mph 6.9 mph 65% 0 in
20:39 81 °F 68 °F 30.1 in ENE 3.6 mph 7.6 mph 65% 0 in
20:44 80.6 °F 68.2 °F 30.1 in ENE 3.6 mph 8.1 mph 66% 0 in
20:49 80.4 °F 68 °F 30.1 in NE 3.8 mph 8 mph 66.2% 0 in
20:54 80.2 °F 68.4 °F 30.1 in NE 4.3 mph 8.1 mph 67% 0 in
20:59 80.1 °F 68.4 °F 30.1 in NE 4.5 mph 8.5 mph 67.7% 0 in
21:04 79.5 °F 68.4 °F 30.1 in NE 4.7 mph 9 mph 68.5% 0 in
21:09 79.3 °F 68.5 °F 30.1 in ENE 4.7 mph 8.5 mph 69.4% 0 in
21:14 79.2 °F 68.7 °F 30.1 in NE 4.7 mph 10 mph 70.3% 0 in
21:19 79 °F 68.7 °F 30.1 in NE 5.1 mph 10.4 mph 71% 0 in
21:24 78.6 °F 68.7 °F 30.1 in NE 5.9 mph 10 mph 71.4% 0 in
21:29 78.6 °F 68.7 °F 30.1 in NE 5.9 mph 10 mph 72% 0 in
21:34 78.4 °F 68.9 °F 30.1 in NE 5.9 mph 10 mph 72.3% 0 in
21:39 78.3 °F 68.9 °F 30.1 in NE 5.9 mph 9.2 mph 73% 0 in
21:44 78.1 °F 68.7 °F 30.1 in NE 5.9 mph 9.2 mph 73% 0 in
21:49 77.9 °F 68.9 °F 30.1 in NE 5.7 mph 9 mph 73.8% 0 in
21:54 77.7 °F 68.9 °F 30.1 in NE 5.2 mph 8.1 mph 74.2% 0 in
21:59 77.5 °F 69.1 °F 30.1 in NE 5 mph 8.1 mph 75% 0 in
22:04 77.5 °F 69.1 °F 30.1 in NE 4.7 mph 8.5 mph 75% 0 in
22:09 77.5 °F 69.1 °F 30.1 in NE 4.8 mph 10.7 mph 75.3% 0 in
22:14 77.4 °F 69.3 °F 30.1 in NE 5.2 mph 11 mph 76% 0 in
22:19 77.2 °F 69.1 °F 30.1 in ENE 5.3 mph 10 mph 76% 0 in
22:24 77.2 °F 69.3 °F 30.1 in NE 5.4 mph 8 mph 76.4% 0 in
22:29 77.2 °F 69.4 °F 30.1 in NE 5 mph 7 mph 77% 0 in
22:34 77 °F 69.3 °F 30.1 in NE 4 mph 8.1 mph 77% 0 in
22:39 77 °F 69.3 °F 30.1 in NE 4.1 mph 8 mph 77% 0 in
22:44 76.8 °F 69.4 °F 30.1 in NE 4.3 mph 8.1 mph 77.7% 0 in
22:49 76.8 °F 69.4 °F 30.1 in ENE 4.2 mph 8 mph 78% 0 in
22:54 76.8 °F 69.3 °F 30.1 in ENE 4 mph 6 mph 77.7% 0 in
22:59 76.8 °F 69.3 °F 30.1 in Este 3.7 mph 6 mph 77.5% 0 in
23:04 76.8 °F 69.4 °F 30.1 in NE 3.1 mph 6 mph 78% 0 in
23:09 76.6 °F 69.3 °F 30.1 in ENE 3.2 mph 6.9 mph 78% 0 in
23:14 76.6 °F 69.4 °F 30.1 in NE 3.6 mph 7 mph 78.3% 0 in
23:19 76.6 °F 69.6 °F 30.1 in ENE 3.4 mph 7.4 mph 79% 0 in
23:24 76.3 °F 69.4 °F 30.1 in NE 3.1 mph 7 mph 79.3% 0 in
23:29 76.1 °F 69.6 °F 30.1 in NE 3.5 mph 7 mph 80% 0 in
23:34 76.1 °F 69.4 °F 30.1 in ENE 4.3 mph 7 mph 80% 0 in
23:39 76.3 °F 69.6 °F 30.1 in ENE 4.1 mph 7 mph 80% 0 in
23:44 76.3 °F 69.6 °F 30.1 in ENE 3.6 mph 6 mph 80% 0 in
23:49 76.3 °F 69.6 °F 30.1 in Este 3 mph 3.5 mph 80% 0 in
23:54 76.3 °F 69.6 °F 30.1 in ENE 1.8 mph 4.6 mph 80% 0 in
23:59 76.3 °F 69.6 °F 30.1 in NE 2 mph 5 mph 80% 0 in
Murcia-Puente Tocinos, España
Compliments of Weather Underground - 2.75 mb

La estación de MeteoMurcia.com, publica sus datos en los siguientes proyectos:

Weather Underground PWS IMURCIAP2 Meteoclimatic www.awekas.at

W3Counter
Web Analytics